Weather observations for the past three days for
Marshfield Airport
Metric (Imperial)
Date Time (edt) Wind (kph) Vis. (km) Weather Sky Cond. Temperature (ºC) Relative Humidity Wind Chill (°C) Heat Index (°C) Pressure Precipitation (cm)
Air Dwpt 6 hour altimeter (cm) sea level (mb) 1 hr 3 hr 6 hr
Max. Min.
03 01:55 Calm 16.09 Overcast OVC080 18 15 83% 76.4 0.0
03 01:35 Calm 16.09 Overcast OVC080 18 15 83% 76.4 0.0
03 01:15 SE 6 16.09 Overcast OVC080 18 15 83% 76.43 0.0
03 00:55 Calm 16.09 Overcast OVC080 18 16 88% 76.43 0.0
03 00:35 Calm 16.09 Overcast OVC080 17 16 94% 76.43 0.0
03 00:15 Calm 16.09 Overcast OVC080 17 16 94% 76.43 0.0
02 23:55 Calm 16.09 Overcast OVC075 17 15 88% 76.43 0.0
02 23:35 Calm 16.09 Overcast OVC075 18 16 88% 76.43 0.0
02 23:15 Calm 16.09 Overcast OVC080 18 16 88% 76.45 0.0
02 22:55 SE 7 16.09 Overcast OVC080 18 16 88% 76.48 0.0
02 22:35 Calm 16.09 Overcast OVC075 18 16 88% 76.48 0.0
02 22:15 Calm 16.09 Overcast OVC070 18 16 88% 76.48 0.0
02 21:55 SE 6 16.09 Overcast OVC070 18 16 88% 76.48 0.0
02 21:35 SE 7 16.09 Overcast OVC070 18 16 88% 76.5 0.0
02 21:15 Vrbl 6 16.09 Mostly Cloudy BKN070 18 16 88% 76.5 0.0
02 20:55 Calm 16.09 Partly Cloudy SCT070 17 15 88% 76.53 0.0
02 20:35 Calm 16.09 Mostly Cloudy BKN070 18 15 83% 76.53 0.0
02 20:15 Calm 16.09 Partly Cloudy SCT070 19 16 83% 76.53 0.0
02 19:55 Vrbl 7 16.09 A Few Clouds FEW070 19 16 83% 76.53 0.0
02 19:35 SE 7 16.09 Fair CLR 19 16 83% 76.53 0.0
02 19:15 Calm 16.09 Fair CLR 20 16 78% 76.56 0.0
02 18:55 E 11 16.09 Fair CLR 20 16 78% 76.56 0.0
02 18:35 E 11 16.09 Fair CLR 20 16 78% 76.58 0.0
02 18:15 E 9 16.09 Fair CLR 20 16 78% 76.61 0.0
02 17:55 Vrbl 11 G 20 16.09 Fair CLR 21 16 73% 76.58 0.0
02 17:35 E 15 16.09 Fair CLR 21 16 73% 76.56 0.0
02 17:15 E 13 16.09 Fair CLR 21 16 73% 76.58 0.0
02 16:55 E 15 16.09 Fair CLR 21 16 73% 76.61 0.0
02 16:35 E 13 16.09 Fair CLR 21 16 73% 76.61 0.0
02 16:15 E 13 16.09 Fair CLR 21 16 73% 76.58 0.0
02 15:55 E 11 16.09 Fair CLR 22 16 69% 76.61 0.0
02 15:35 E 15 16.09 Fair CLR 22 16 69% 76.63 0.0
02 15:15 E 15 G 26 16.09 Fair CLR 22 15 65% 76.61 0.0
02 14:55 E 15 16.09 Fair CLR 22 15 65% 76.61 0.0
02 14:35 E 17 16.09 Fair CLR 22 15 65% 76.63 0.0
02 14:15 NE 15 16.09 Fair CLR 22 15 65% 76.63 0.0
02 13:55 E 15 16.09 Fair CLR 22 15 65% 76.63 0.0
02 13:35 E 11 16.09 Fair CLR 22 15 65% 76.63 0.0
02 13:15 E 15 16.09 Fair CLR 23 15 61% 76.63 0.0
02 12:55 E 13 16.09 Fair CLR 22 15 65% 76.66 0.0
02 12:35 Vrbl 9 G 19 16.09 Fair CLR 22 15 65% 76.66 0.0
02 12:15 E 13 16.09 Fair CLR 22 15 65% 76.66 0.0
02 11:55 NE 9 16.09 Fair CLR 22 15 65% 76.68 0.0
02 11:35 E 15 16.09 Partly Cloudy SCT085 23 15 61% 76.68 0.0
02 11:15 E 13 16.09 Mostly Cloudy BKN085 22 15 65% 76.68 0.0
02 10:55 E 9 16.09 Overcast OVC085 21 15 69% 76.68 0.0
02 10:35 E 13 16.09 Overcast OVC085 21 16 73% 76.66 0.0
02 10:15 E 13 16.09 Overcast OVC080 21 16 73% 76.63 0.0
02 09:55 E 11 16.09 Overcast OVC080 21 16 73% 76.63 0.0
02 09:35 E 9 16.09 Overcast OVC080 21 16 73% 76.63 0.0
02 09:15 E 11 16.09 Overcast OVC080 20 16 78% 76.61 0.0
02 08:55 Vrbl 7 16.09 Overcast OVC080 20 16 78% 76.63 0.0
02 08:35 E 11 16.09 Overcast OVC080 20 16 78% 76.63 0.0
02 08:15 E 6 16.09 Overcast OVC075 20 16 78% 76.66 0.0
02 07:55 E 7 16.09 Overcast OVC075 20 15 73% 76.66 0.0
02 07:35 Vrbl 6 16.09 Overcast OVC075 19 15 78% 76.63 0.0
02 07:15 E 7 16.09 Mostly Cloudy BKN080 19 15 78% 76.61 0.0
02 06:55 E 7 16.09 A Few Clouds FEW080 19 16 83% 76.58 0.0
02 06:35 Vrbl 9 16.09 Partly Cloudy SCT080 19 16 83% 76.58 0.0
02 06:15 E 13 16.09 Mostly Cloudy BKN080 19 16 83% 76.56 0.0
02 05:55 E 7 16.09 Partly Cloudy SCT080 19 16 83% 76.58 0.0
02 05:35 E 9 16.09 Partly Cloudy FEW014 SCT045 SCT050 19 17 88% 76.53 0.0
02 05:15 NE 9 16.09 Mostly Cloudy FEW013 SCT042 BKN048 19 17 88% 76.53 0.0
02 04:55 NE 13 16.09 Mostly Cloudy FEW019 SCT033 BKN039 19 17 88% 76.53 0.0
02 04:35 NE 13 16.09 Mostly Cloudy SCT019 BKN065 BKN080 19 16 83% 76.53 0.0
02 04:15 NE 11 16.09 Overcast OVC065 19 16 83% 76.56 0.0
02 03:55 Vrbl 7 16.09 Overcast BKN065 OVC110 19 16 83% 76.56 0.0
02 03:35 NE 11 16.09 Overcast FEW080 OVC110 19 16 83% 76.53 0.0
02 03:15 NE 13 16.09 Overcast BKN080 OVC110 19 16 83% 76.5 0.0
02 02:55 NE 11 16.09 Overcast SCT060 BKN080 OVC110 19 16 83% 76.5 0.0
02 02:35 Calm 16.09 Overcast OVC065 17 15 88% 76.53 0.0
02 02:15 Calm 16.09 Overcast BKN060 OVC080 16 15 94% 76.53 0.0
02 01:55 Calm 16.09 Overcast SCT060 OVC080 17 15 88% 76.53 0.0
02 01:35 Calm 16.09 Overcast FEW060 BKN080 OVC110 16 15 94% 76.53 0.0
02 01:15 Calm 16.09 Overcast OVC100 17 15 88% 76.5 0.0
02 00:55 Calm 16.09 Overcast OVC100 16 15 94% 76.48 0.0
02 00:35 Calm 16.09 Overcast OVC100 16 15 94% 76.45 0.0
02 00:15 Calm 16.09 Overcast OVC100 16 15 94% 76.45 0.0
01 23:55 Calm 16.09 Overcast OVC100 16 15 94% 76.43 0.0
01 23:35 Calm 16.09 Overcast SCT085 OVC100 16 15 94% 76.45 0.0
01 23:15 Calm 16.09 Overcast OVC090 16 15 94% 76.45 0.0
01 22:55 Calm 16.09 Overcast FEW036 FEW048 OVC095 16 15 94% 76.45 0.0
01 22:35 Calm 16.09 Overcast SCT037 BKN045 OVC100 16 15 94% 76.43 0.0
01 22:15 NW 6 16.09 Mostly Cloudy FEW038 SCT044 BKN090 16 15 94% 76.43 0.0
01 21:55 Calm 16.09 Mostly Cloudy FEW049 SCT060 BKN090 17 15 88% 76.43 0.0
01 21:35 Calm 16.09 Overcast OVC060 17 16 94% 76.43 0.0
01 21:15 Calm 16.09 Overcast FEW035 BKN060 OVC110 17 15 88% 76.43 0.0
01 20:55 Calm 16.09 Overcast SCT035 BKN048 OVC065 17 16 94% 76.4 0.0
01 20:35 Calm 16.09 Overcast FEW044 BKN055 OVC070 18 16 88% 76.4 0.0
01 20:15 Calm 16.09 Overcast SCT042 BKN055 OVC070 18 16 88% 76.43 0.0
01 19:55 Calm 16.09 Overcast SCT048 BKN075 OVC090 18 16 88% 76.4 0.0
01 19:35 Calm 16.09 Overcast FEW075 OVC090 18 16 88% 76.4 0.0
01 19:15 E 6 16.09 Overcast OVC090 18 15 83% 76.38 0.0
01 18:55 Calm 16.09 Mostly Cloudy FEW049 FEW070 BKN085 18 15 83% 76.38 0.0
01 18:35 Calm 16.09 Mostly Cloudy FEW045 SCT055 BKN080 18 16 88% 76.38 0.0
01 18:15 Calm 16.09 Mostly Cloudy SCT042 SCT055 BKN065 19 16 83% 76.4 0.0
01 17:55 SW 7 16.09 Partly Cloudy FEW065 FEW080 SCT090 19 16 83% 76.4 0.0
01 17:35 Vrbl 6 16.09 A Few Clouds FEW090 19 16 83% 76.4 0.0
01 17:15 Calm 16.09 Fair CLR 19 16 83% 76.38 0.0
01 16:55 Calm 16.09 Fair CLR 19 15 78% 76.35 0.0
01 16:35 Calm 16.09 Fair CLR 19 15 78% 76.35 0.0
01 16:15 Calm 16.09 A Few Clouds FEW090 19 15 78% 76.33 0.0
01 15:55 SW 7 16.09 Partly Cloudy FEW070 SCT085 19 15 78% 76.33 0.0
01 15:35 Vrbl 6 16.09 Mostly Cloudy FEW070 BKN085 19 15 78% 76.33 0.0
01 15:15 S 9 16.09 Partly Cloudy FEW065 FEW075 SCT090 20 15 73% 76.33 0.0
01 14:55 S 7 16.09 Mostly Cloudy FEW048 BKN090 20 16 78% 76.33 0.0
01 14:35 S 11 G 22 16.09 Partly Cloudy SCT100 21 14 64% 76.33 0.0
01 14:15 SE 9 16.09 A Few Clouds FEW100 21 15 69% 76.3 0.0
01 13:55 SE 9 16.09 A Few Clouds FEW060 FEW070 FEW100 21 15 69% 76.3 0.0
01 13:35 SE 13 G 22 16.09 A Few Clouds FEW060 FEW070 21 15 69% 76.3 0.0
01 13:15 SE 13 16.09 Partly Cloudy FEW048 SCT070 SCT110 21 16 73% 76.33 0.0
01 12:55 SE 13 G 22 16.09 Mostly Cloudy FEW039 FEW070 BKN110 21 16 73% 76.3 0.0
01 12:35 SE 13 G 26 16.09 Partly Cloudy SCT120 22 16 69% 76.3 0.0
01 12:15 SE 13 16.09 A Few Clouds FEW070 21 17 78% 76.3 0.0
01 11:55 SE 11 16.09 Partly Cloudy SCT070 21 18 83% 76.33 0.0
01 11:35 SE 9 16.09 Partly Cloudy SCT120 21 18 83% 76.33 0.0
01 11:15 E 6 16.09 Partly Cloudy SCT120 20 18 88% 76.33 0.0
01 10:55 Calm 16.09 A Few Clouds FEW120 21 18 83% 76.35 0.0 0.03
01 10:35 NE 7 16.09 Fair CLR 21 18 83% 76.35 0.0
01 10:15 Calm 16.09 Light Drizzle CLR 20 18 88% 76.35 0.0
01 09:55 Calm 16.09 Light Rain SCT060 SCT070 20 18 88% 76.35 0.0
01 09:35 Calm 16.09 Overcast OVC060 20 17 83% 76.35 0.0
01 09:15 Calm 16.09 Overcast OVC060 20 17 83% 76.35 0.0
01 08:55 Calm 16.09 Overcast OVC060 20 17 83% 76.35 0.0
01 08:35 Calm 16.09 Overcast FEW049 BKN060 OVC070 19 17 88% 76.35 0.0
01 08:15 Calm 16.09 Overcast SCT055 OVC070 20 17 83% 76.35 0.0
01 07:55 Calm 16.09 Overcast SCT050 BKN055 OVC065 19 17 88% 76.33 0.0
01 07:35 Calm 16.09 Overcast SCT050 OVC065 19 17 88% 76.33 0.0
01 07:15 Calm 16.09 Overcast FEW060 OVC070 19 16 83% 76.33 0.0
01 06:35 Calm 16.09 Overcast BKN049 OVC065 19 16 83% 76.3 0.0
01 06:15 Calm 16.09 Overcast BKN048 BKN055 OVC065 19 16 83% 76.3 0.0
01 05:55 Calm 16.09 Overcast BKN047 OVC055 19 16 83% 76.28 0.0
01 05:35 Calm 16.09 Overcast SCT048 OVC055 19 16 83% 76.28 0.0
01 05:15 SW 6 16.09 Overcast BKN047 OVC055 19 16 83% 76.3 0.0
01 04:55 SW 7 16.09 Overcast OVC046 19 16 83% 76.3 0.0
01 04:35 SW 7 16.09 Overcast OVC045 19 16 83% 76.3 0.0
01 04:15 Calm 16.09 Overcast OVC045 18 16 88% 76.33 0.0
01 03:55 Calm 16.09 Overcast BKN045 OVC060 19 16 83% 76.33 0.0
01 03:35 Calm 16.09 Overcast OVC046 19 16 83% 76.35 0.0
01 03:15 Calm 16.09 Overcast BKN050 OVC055 19 16 83% 76.33 0.0
01 02:55 Vrbl 7 16.09 Overcast SCT050 OVC055 19 16 83% 76.35 0.0
01 02:35 Calm 16.09 Overcast OVC060 19 16 83% 76.35 0.0
01 02:15 SW 6 16.09 Overcast BKN050 OVC070 19 16 83% 76.35 0.0
01 01:55 SW 7 16.09 Overcast SCT055 BKN070 OVC110 19 16 83% 76.35 0.0
01 01:35 SW 9 16.09 Overcast BKN050 OVC070 19 16 83% 76.35 0.0
01 01:15 SW 9 16.09 Overcast OVC049 19 16 83% 76.38 0.0
01 00:55 SW 7 16.09 Overcast OVC049 19 16 83% 76.35 0.0
01 00:35 SW 7 16.09 Overcast OVC048 19 16 83% 76.38 0.0
01 00:15 SW 7 16.09 Overcast BKN047 OVC110 19 17 88% 76.38 0.0
31 23:55 SW 6 16.09 Overcast BKN048 BKN060 OVC120 19 16 83% 76.38 0.0
31 23:35 SW 7 16.09 Overcast BKN050 OVC120 19 17 88% 76.38 0.0
31 23:15 SW 7 16.09 Mostly Cloudy FEW039 BKN050 BKN055 19 16 83% 76.4 0.0
31 22:55 SW 7 16.09 Mostly Cloudy SCT040 SCT049 BKN055 19 16 83% 76.38 0.0
31 22:35 SW 9 16.09 Mostly Cloudy FEW038 SCT044 BKN120 19 16 83% 76.4 0.0
31 22:15 SW 9 16.09 Mostly Cloudy SCT036 SCT045 BKN120 19 16 83% 76.4 0.0
31 21:55 SW 9 16.09 Mostly Cloudy BKN120 19 16 83% 76.4 0.0
31 21:35 Calm 16.09 Fair CLR 18 16 88% 76.4 0.0
31 21:15 Calm 16.09 A Few Clouds FEW048 19 16 83% 76.4 0.0
31 20:55 Calm 16.09 Partly Cloudy FEW044 SCT050 SCT120 19 15 78% 76.4 0.0
31 20:35 Calm 16.09 Mostly Cloudy FEW050 BKN110 19 15 78% 76.4 0.0
31 20:15 S 7 16.09 Mostly Cloudy FEW055 BKN110 19 14 73% 76.4 0.0
31 19:55 Vrbl 7 16.09 Fair CLR 19 14 73% 76.4 0.0
31 19:35 S 7 16.09 Fair CLR 19 14 73% 76.4 0.0
31 19:15 S 9 16.09 Fair CLR 19 14 73% 76.4 0.0
31 18:55 S 9 16.09 Fair CLR 19 14 73% 76.43 0.0
31 18:35 Vrbl 7 16.09 Fair CLR 20 14 69% 76.43 0.0
31 18:15 SE 7 16.09 Fair CLR 20 14 69% 76.43 0.0
31 17:55 SE 7 16.09 Fair CLR 20 13 64% 76.43 0.0
31 17:35 SE 11 16.09 Fair CLR 21 13 60% 76.45 0.0
31 17:15 SE 9 16.09 Fair CLR 20 13 64% 76.43 0.0
31 16:55 SE 13 16.09 Fair CLR 20 13 64% 76.45 0.0
31 16:35 SE 11 16.09 Fair CLR 21 13 60% 76.45 0.0
31 16:15 SE 13 16.09 Fair CLR 20 14 69% 76.45 0.0
31 15:55 SE 9 16.09 Fair CLR 20 13 64% 76.45 0.0
31 15:35 SE 9 16.09 Fair CLR 20 14 69% 76.48 0.0
31 15:15 SE 11 16.09 Fair CLR 20 14 69% 76.48 0.0
31 14:55 SE 9 16.09 Fair CLR 21 13 60% 76.5 0.0
31 14:35 SE 11 16.09 Fair CLR 21 12 57% 76.5 0.0
31 13:55 Vrbl 9 16.09 Fair CLR 21 12 57% 76.53 0.0
31 13:35 NE 9 16.09 Fair CLR 21 12 57% 76.53 0.0
31 13:15 NE 11 16.09 Fair CLR 21 12 57% 76.56 0.0
31 12:55 NE 11 16.09 Fair CLR 21 12 57% 76.53 0.0
31 12:35 NE 11 G 20 16.09 Fair CLR 21 13 60% 76.56 0.0
31 12:15 NE 9 16.09 Fair CLR 21 12 57% 76.58 0.0
31 11:55 Vrbl 7 G 19 16.09 Fair CLR 21 13 60% 76.58 0.0
31 11:35 NE 13 16.09 Fair CLR 21 13 60% 76.61 0.0
31 11:15 NE 13 16.09 Fair CLR 21 13 60% 76.58 0.0
31 10:55 NE 15 16.09 Fair CLR 20 13 64% 76.58 0.0
31 10:35 NE 9 16.09 Fair CLR 21 13 60% 76.58 0.0
31 10:15 NE 13 16.09 Fair CLR 21 12 57% 76.56 0.0
31 09:55 NE 11 16.09 Fair CLR 20 13 64% 76.56 0.0
31 09:35 NE 13 16.09 Fair CLR 20 13 64% 76.56 0.0
31 09:15 NE 11 16.09 Fair CLR 21 13 60% 76.53 0.0
31 08:55 NE 13 16.09 Fair CLR 20 13 64% 76.53 0.0
31 08:35 NE 15 16.09 Fair CLR 20 14 69% 76.53 0.0
31 08:15 NE 13 16.09 Fair CLR 20 14 69% 76.5 0.0
31 07:55 NE 7 G 19 16.09 Fair CLR 20 14 69% 76.5 0.0
31 07:35 Calm 16.09 Fair CLR 20 15 73% 76.48 0.0
31 07:15 Calm 16.09 Fair CLR 19 15 78% 76.48 0.0
31 06:55 Vrbl 7 16.09 Fair CLR 19 15 78% 76.45 0.0
31 06:35 Vrbl 6 16.09 Fair CLR 19 15 78% 76.45 0.0
31 06:15 Calm 16.09 Fair CLR 18 16 88% 76.43 0.0
31 05:55 Vrbl 6 16.09 Fair CLR 18 17 94% 76.4 0.0
31 05:35 Calm 16.09 Fair CLR 18 17 94% 76.4 0.0
31 05:15 Calm 16.09 A Few Clouds FEW045 FEW060 18 16 88% 76.4 0.0
31 04:55 Vrbl 6 16.09 Partly Cloudy FEW044 SCT055 19 16 83% 76.4 0.0
31 04:35 Calm 16.09 A Few Clouds FEW060 19 17 88% 76.38 0.0
31 04:15 Calm 11.27 Fair CLR 19 18 94% 76.35 0.0
31 03:55 Calm 16.09 A Few Clouds FEW050 FEW060 19 18 94% 76.35 0.0
31 03:35 Calm 16.09 Mostly Cloudy SCT050 BKN060 19 18 94% 76.33 0.0
31 03:15 Calm 16.09 Mostly Cloudy BKN055 19 18 94% 76.3 0.0
31 02:55 Calm 16.09 Mostly Cloudy BKN055 19 18 94% 76.3 0.0
31 02:35 Calm 16.09 Mostly Cloudy BKN049 BKN055 19 19 100% 76.3 0.0
31 02:15 Calm 16.09 Mostly Cloudy FEW036 SCT041 BKN047 20 19 94% 76.3 0.0
Date Time (edt) Wind (kph) Vis. (km) Weather Sky Cond. Air Dwpt Max. Min. Relative Humidity Wind Chill (°C) Heat Index (°C) altimeter (cm) sea level (mb) 1 hr 3 hr 6 hr
6 hour
Temperature (ºC) Pressure Precipitation (cm)